createdAt,value
2022-12-01T05:03:15.307Z,101039.66
2022-12-01T05:06:23.579Z,101046.56
2022-12-01T05:09:25.499Z,101042.97
2022-12-01T05:12:27.816Z,101041.84
2022-12-01T05:15:30.151Z,101034.91
2022-12-01T05:18:33.032Z,101044.09
2022-12-01T05:21:35.158Z,101038.13
2022-12-01T05:24:37.492Z,101036.38
2022-12-01T05:27:39.604Z,101046.00
2022-12-01T05:30:41.986Z,101042.41
2022-12-01T05:33:44.091Z,101036.00
2022-12-01T05:36:46.620Z,101041.16
2022-12-01T05:39:48.956Z,101039.12
2022-12-01T05:42:51.452Z,101039.72
2022-12-01T05:45:55.319Z,101040.06
2022-12-01T05:48:57.734Z,101049.31
2022-12-01T05:51:59.801Z,101051.53
2022-12-01T05:55:06.736Z,101042.72
2022-12-01T05:58:08.977Z,101050.72
2022-12-01T06:01:11.324Z,101051.31
2022-12-01T06:04:13.698Z,101049.25
2022-12-01T06:07:15.820Z,101063.34
2022-12-01T06:10:18.223Z,101062.53
2022-12-01T06:13:20.277Z,101058.09
2022-12-01T06:16:22.667Z,101066.97
2022-12-01T06:19:24.748Z,101065.75
2022-12-01T06:22:27.109Z,101067.50
2022-12-01T06:25:29.260Z,101069.44
2022-12-01T06:28:31.628Z,101074.88
2022-12-01T06:31:33.729Z,101075.94
2022-12-01T06:34:38.137Z,101075.31
2022-12-01T06:37:40.316Z,101075.03
2022-12-01T06:40:44.391Z,101069.81
2022-12-01T06:43:46.924Z,101070.00
2022-12-01T06:46:52.953Z,101063.84
2022-12-01T06:49:55.083Z,101063.56
2022-12-01T06:52:59.271Z,101061.00
2022-12-01T06:56:03.309Z,101067.84
2022-12-01T06:59:06.272Z,101062.34
2022-12-01T07:02:11.146Z,101068.38
2022-12-01T07:05:13.516Z,101067.16
2022-12-01T07:08:15.636Z,101069.81
2022-12-01T07:11:18.773Z,101066.69
2022-12-01T07:14:26.457Z,101069.81
2022-12-01T07:17:29.627Z,101078.03
2022-12-01T07:20:31.643Z,101078.03
2022-12-01T07:23:34.585Z,101080.69
2022-12-01T07:26:36.689Z,101077.91
2022-12-01T07:29:39.093Z,101078.19
2022-12-01T07:32:41.167Z,101078.44
2022-12-01T07:35:43.541Z,101081.88
2022-12-01T07:38:45.843Z,101080.31
2022-12-01T07:41:48.194Z,101073.91
2022-12-01T07:44:50.276Z,101077.66
2022-12-01T07:47:54.156Z,101073.09
2022-12-01T07:50:56.233Z,101069.97
2022-12-01T07:54:03.179Z,101068.97
2022-12-01T07:57:05.200Z,101079.47
2022-12-01T08:00:09.076Z,101073.63
2022-12-01T08:03:14.143Z,101082.22
2022-12-01T08:06:17.655Z,101081.03
2022-12-01T08:09:19.682Z,101081.75
2022-12-01T08:12:22.673Z,101084.03
2022-12-01T08:15:24.828Z,101088.66
2022-12-01T08:18:27.207Z,101083.56
2022-12-01T08:21:29.306Z,101074.97
2022-12-01T08:24:31.620Z,101076.50
2022-12-01T08:27:34.239Z,101072.16
2022-12-01T08:30:36.588Z,101077.03
2022-12-01T08:33:38.731Z,101070.28
2022-12-01T08:36:41.084Z,101077.91
2022-12-01T08:39:46.135Z,101082.50
2022-12-01T08:42:48.806Z,101091.97
2022-12-01T08:45:51.021Z,101084.06
2022-12-01T08:48:55.227Z,101090.00
2022-12-01T08:51:57.414Z,101089.75
2022-12-01T08:55:00.500Z,101082.53
2022-12-01T08:58:02.555Z,101077.72
2022-12-01T09:01:10.496Z,101077.66
2022-12-01T09:04:12.592Z,101074.81
2022-12-01T09:07:19.164Z,101082.13
2022-12-01T09:10:24.992Z,101081.84
2022-12-01T09:13:28.512Z,101078.66
2022-12-01T09:16:31.032Z,101081.06
2022-12-01T09:19:33.984Z,101071.28
2022-12-01T09:22:36.066Z,101069.47
2022-12-01T09:25:38.445Z,101070.50
2022-12-01T09:28:40.606Z,101057.59
2022-12-01T09:31:43.833Z,101059.72
2022-12-01T09:34:45.950Z,101053.84
2022-12-01T09:37:48.278Z,101053.78
2022-12-01T09:40:52.180Z,101048.97
2022-12-01T09:44:15.135Z,101040.97
2022-12-01T09:47:30.100Z,101055.44
2022-12-01T09:50:47.139Z,101040.91
2022-12-01T09:53:54.311Z,101052.28
2022-12-01T09:56:59.465Z,101036.56
2022-12-01T10:00:06.469Z,101037.94
2022-12-01T10:03:33.046Z,101033.03
2022-12-01T10:06:41.424Z,101030.75
2022-12-01T10:09:58.894Z,101030.78
2022-12-01T10:13:01.384Z,101030.53
2022-12-01T10:16:11.480Z,101035.31
2022-12-01T10:19:23.867Z,101030.72
2022-12-01T10:22:45.331Z,101015.00
2022-12-01T10:26:10.023Z,101021.88
2022-12-01T10:29:19.724Z,101019.06
2022-12-01T10:32:51.977Z,101021.41
2022-12-01T10:35:54.235Z,101009.25
2022-12-01T10:38:56.659Z,101006.25
2022-12-01T10:42:07.517Z,101002.53
2022-12-01T10:45:18.145Z,100997.25
2022-12-01T10:48:22.179Z,100995.09
2022-12-01T10:51:26.504Z,100994.44
2022-12-01T10:54:40.420Z,100981.97
2022-12-01T10:57:45.155Z,100987.56
2022-12-01T11:01:00.718Z,100993.78
2022-12-01T11:04:21.135Z,100998.97
2022-12-01T11:07:35.800Z,100995.47
2022-12-01T11:10:38.703Z,100985.00
2022-12-01T11:13:42.186Z,100980.59
2022-12-01T11:16:47.975Z,100973.88
2022-12-01T11:19:50.517Z,100972.25
2022-12-01T11:22:53.870Z,100978.12
2022-12-01T11:26:13.310Z,100968.38
2022-12-01T11:29:33.041Z,100964.84
2022-12-01T11:32:38.855Z,100961.69
2022-12-01T11:35:47.515Z,100963.72
2022-12-01T11:38:50.617Z,100962.47
2022-12-01T11:41:59.782Z,100960.06
2022-12-01T11:45:17.206Z,100954.47
2022-12-01T11:48:25.679Z,100953.88
2022-12-01T11:51:37.783Z,100955.94
2022-12-01T11:54:55.723Z,100954.41
2022-12-01T11:58:02.584Z,100949.16
2022-12-01T12:01:21.793Z,100951.81
2022-12-01T12:05:09.070Z,100944.06
2022-12-01T12:08:26.310Z,100941.19
2022-12-01T12:11:46.300Z,100947.94
2022-12-01T12:14:56.293Z,100946.53
2022-12-01T12:18:15.927Z,100945.97
2022-12-01T12:21:30.003Z,100942.37
2022-12-01T12:25:06.109Z,100937.81
2022-12-01T12:28:25.770Z,100941.00
2022-12-01T12:31:55.853Z,100934.50
2022-12-01T12:35:25.181Z,100933.78
2022-12-01T12:38:27.448Z,100935.28
2022-12-01T12:41:57.059Z,100944.75
2022-12-01T12:45:16.171Z,100945.50
2022-12-01T12:48:28.685Z,100928.37
2022-12-01T12:51:39.624Z,100931.41
2022-12-01T12:55:06.666Z,100933.88
2022-12-01T12:58:22.472Z,100926.03
2022-12-01T13:01:55.967Z,100929.19
2022-12-01T13:05:23.697Z,100930.00
2022-12-01T13:08:35.300Z,100930.00
2022-12-01T13:11:50.116Z,100921.97
2022-12-01T13:15:01.205Z,100922.19
2022-12-01T13:18:17.894Z,100929.00
2022-12-01T13:21:21.691Z,100927.56
2022-12-01T13:24:27.890Z,100928.19
2022-12-01T13:27:35.101Z,100932.56
2022-12-01T13:30:37.986Z,100930.66
2022-12-01T13:33:53.682Z,100931.53
2022-12-01T13:36:56.492Z,100930.19
2022-12-01T13:40:31.471Z,100929.88
2022-12-01T13:43:33.918Z,100937.22
2022-12-01T13:46:36.944Z,100927.63
2022-12-01T13:49:52.589Z,100935.75
2022-12-01T13:53:12.245Z,100935.03
2022-12-01T13:56:17.452Z,100931.38
2022-12-01T13:59:39.348Z,100927.50
2022-12-01T14:02:41.786Z,100934.81
2022-12-01T14:05:53.273Z,100929.47
2022-12-01T14:09:14.583Z,100923.81
2022-12-01T14:12:24.236Z,100931.63
2022-12-01T14:15:42.676Z,100927.69
2022-12-01T14:18:55.883Z,100921.03
2022-12-01T14:22:00.143Z,100920.88
2022-12-01T14:25:07.547Z,100929.16
2022-12-01T14:28:16.759Z,100924.97
2022-12-01T14:31:20.570Z,100923.91
2022-12-01T14:34:26.480Z,100924.69
2022-12-01T14:37:35.300Z,100930.34
2022-12-01T14:40:37.560Z,100932.97
2022-12-01T14:44:01.380Z,100931.09
2022-12-01T14:47:22.299Z,100925.59
2022-12-01T14:50:32.694Z,100926.78
2022-12-01T14:53:40.721Z,100927.28
2022-12-01T14:56:46.392Z,100927.28
2022-12-01T15:00:02.186Z,100937.31
2022-12-01T15:03:12.612Z,100930.44
2022-12-01T15:06:19.950Z,100930.44
2022-12-01T15:09:39.028Z,100939.59
2022-12-01T15:12:41.163Z,100939.25
2022-12-01T15:15:52.292Z,100934.00
2022-12-01T15:18:54.885Z,100945.97
2022-12-01T15:21:58.154Z,100942.13
2022-12-01T15:25:15.133Z,100942.81
2022-12-01T15:28:22.792Z,100943.38
2022-12-01T15:31:24.953Z,100940.59
2022-12-01T15:34:32.040Z,100947.25
2022-12-01T15:37:42.567Z,100943.91
2022-12-01T15:44:22.618Z,100940.47
2022-12-01T15:47:43.653Z,100937.25
2022-12-01T15:51:18.955Z,100951.63
2022-12-01T15:54:25.344Z,100942.13
2022-12-01T15:57:27.552Z,100944.72
2022-12-01T16:00:29.944Z,100941.19
2022-12-01T16:03:46.692Z,100953.81
2022-12-01T16:07:06.819Z,100946.00
2022-12-01T16:10:28.857Z,100943.72
2022-12-01T16:13:41.789Z,100945.00
2022-12-01T16:16:46.238Z,100948.47
2022-12-01T16:19:48.415Z,100951.50
2022-12-01T16:22:58.705Z,100944.25
2022-12-01T16:26:02.215Z,100948.53
